Aurora, CO

11:24 PM MDT on April 24, 2017 (GMT -0600)
Green Valley Ranch Golf Club | | Change Station

Elev 5400 ft 39.79 °N, 104.75 °W | Updated 51 seconds ago

Mostly Cloudy
Mostly Cloudy
46.3 °F
Feels Like 46 °F
N
0.0
Wind Variable Wind from SE
Gusts 25.0 mph

Today
High -- | Low -- °F
--% Chance of Precip.
Yesterday
High -- | Low -- °F
Precip. -- in
Pressure 29.39 in
Visibility 10.0 miles
Clouds Mostly Cloudy 11000 ft
Mostly Cloudy 24000 ft
Windchill 46 °F
Dew Point 38 °F
Humidity 73%
Rainfall 0.00 in
Snow Depth Not available.
6:07 AM 7:46 PM
Waning Crescent, 2% visible
METAR KDEN 250453Z 08009KT 10SM BKN110 BKN240 08/03 A2954 RMK AO2 LTG DSNT NE SLP953 FRQ LTGIC DSNT NE CB DSNT NE MOV NE T00830033
Pressure 29.39 in
Visibility 10.0 miles
Clouds Mostly Cloudy 11000 ft
Mostly Cloudy 24000 ft
Windchill 46 °F
Dew Point 38 °F
Humidity 73%
Rainfall 0.00 in
Snow Depth Not available.
6:07 AM 7:46 PM
Waning Crescent, 2% visible
METAR KDEN 250453Z 08009KT 10SM BKN110 BKN240 08/03 A2954 RMK AO2 LTG DSNT NE SLP953 FRQ LTGIC DSNT NE CB DSNT NE MOV NE T00830033

Get Severe Weather Alerts

Thanks for signing up!

Be on the lookout for a verification email in your inbox.

You'll start receiving the daily forecast at 8 AM.

×

10-Day Weather Forecast

Almanac

Astronomy

Apr. 24, 2017 Rise Set
Actual Time
Civil Twilight
Nautical Twilight
Astronomical Twilight
Moon
Length of Visible Light
Length of Day
Tomorrow will be .
, % of the Moon is Illuminated

Today's Extremes

State Highs State Lows

Community

WunderPhotos

WunderBlog® & News

Nearby

Air Quality

  Air Quality AQ Index Pollutant
Not available.

Snow Depth

Station Depth Elevation

Earthquake Activity

City Distance Mag. Time & Date
Minimum magnitude displayed is 2.5.

Coastal Water Temperatures

Place Temperature

Stations

Nearby Weather Stations

Station Location Temp. Windchill Dew Point Humidity Wind Precip. Elev Updated Type
                   

Watches & Warnings

There are currently no watches in effect.